createdAt,value
2023-03-20T00:02:38.533Z,11.98
2023-03-20T00:05:40.863Z,13.77
2023-03-20T00:08:45.696Z,11.27
2023-03-20T00:11:51.053Z,11.85
2023-03-20T00:14:53.540Z,13.50
2023-03-20T00:17:56.957Z,11.88
2023-03-20T00:20:59.126Z,12.13
2023-03-20T00:24:02.115Z,11.73
2023-03-20T00:27:06.132Z,13.15
2023-03-20T00:30:22.565Z,15.82
2023-03-20T00:33:27.332Z,12.32
2023-03-20T00:36:30.107Z,11.77
2023-03-20T00:39:34.729Z,15.30
2023-03-20T00:42:37.408Z,11.40
2023-03-20T00:45:39.728Z,14.00
2023-03-20T00:48:46.863Z,13.25
2023-03-20T00:51:49.236Z,14.80
2023-03-20T00:54:51.670Z,16.17
2023-03-20T00:58:00.358Z,14.80
2023-03-20T01:01:02.609Z,16.25
2023-03-20T01:04:11.714Z,15.65
2023-03-20T01:07:16.490Z,16.27
2023-03-20T01:10:19.247Z,15.95
2023-03-20T01:13:23.195Z,17.50
2023-03-20T01:16:27.373Z,15.38
2023-03-20T01:19:29.697Z,17.52
2023-03-20T01:22:31.897Z,18.23
2023-03-20T01:25:35.013Z,15.00
2023-03-20T01:28:37.457Z,17.75
2023-03-20T01:31:39.891Z,17.13
2023-03-20T01:34:42.189Z,17.73
2023-03-20T01:37:45.536Z,19.23
2023-03-20T01:41:02.034Z,17.33
2023-03-20T01:44:35.519Z,16.63
2023-03-20T01:47:37.668Z,17.80
2023-03-20T01:50:39.892Z,17.40
2023-03-20T01:53:54.864Z,17.38
2023-03-20T01:57:04.493Z,16.88
2023-03-20T02:00:12.370Z,17.58
2023-03-20T02:03:18.386Z,17.73
2023-03-20T02:06:45.987Z,16.88
2023-03-20T02:09:52.079Z,18.98
2023-03-20T02:13:03.480Z,18.17
2023-03-20T02:16:17.187Z,18.67
2023-03-20T02:19:43.274Z,18.63
2023-03-20T02:23:03.674Z,17.92
2023-03-20T02:26:27.173Z,17.85
2023-03-20T02:30:04.835Z,18.77
2023-03-20T02:33:16.686Z,18.27
2023-03-20T02:36:39.070Z,18.48
2023-03-20T02:40:01.223Z,18.35
2023-03-20T02:43:13.085Z,18.23
2023-03-20T02:46:47.215Z,18.55
2023-03-20T02:50:02.354Z,19.25
2023-03-20T02:53:20.856Z,17.48
2023-03-20T02:56:32.192Z,18.95
2023-03-20T03:00:09.903Z,17.63
2023-03-20T03:03:29.152Z,18.75
2023-03-20T03:06:36.848Z,19.25
2023-03-20T03:10:09.839Z,19.50
2023-03-20T03:13:18.804Z,19.25
2023-03-20T03:16:37.240Z,19.27
2023-03-20T03:19:44.032Z,18.52
2023-03-20T03:22:46.508Z,20.02
2023-03-20T03:25:49.794Z,19.90
2023-03-20T03:29:00.045Z,19.48
2023-03-20T03:32:05.800Z,18.42
2023-03-20T03:35:15.672Z,19.15
2023-03-20T03:38:31.880Z,18.98
2023-03-20T03:41:43.233Z,19.10
2023-03-20T03:44:56.351Z,19.88
2023-03-20T03:48:17.740Z,20.55
2023-03-20T03:51:25.253Z,20.17
2023-03-20T03:54:53.442Z,20.50
2023-03-20T03:58:24.735Z,19.98
2023-03-20T04:01:29.491Z,19.23
2023-03-20T04:04:33.876Z,19.08
2023-03-20T04:07:36.706Z,20.13
2023-03-20T04:10:38.770Z,19.27
2023-03-20T04:13:44.092Z,19.90
2023-03-20T04:16:49.199Z,20.30
2023-03-20T04:19:51.733Z,20.08
2023-03-20T04:22:54.261Z,20.20
2023-03-20T04:25:56.775Z,19.95
2023-03-20T04:28:59.100Z,21.25
2023-03-20T04:32:24.342Z,19.77
2023-03-20T04:35:49.034Z,19.85
2023-03-20T04:38:52.287Z,20.58
2023-03-20T04:41:55.053Z,19.38
2023-03-20T04:44:57.312Z,20.23
2023-03-20T04:48:00.279Z,21.05
2023-03-20T04:51:03.260Z,20.45
2023-03-20T04:54:17.819Z,21.02
2023-03-20T04:57:20.156Z,19.73
2023-03-20T05:00:22.830Z,19.67
2023-03-20T05:03:27.762Z,20.02
2023-03-20T05:06:31.873Z,19.65
2023-03-20T05:09:35.012Z,21.15
2023-03-20T05:12:38.951Z,18.85
2023-03-20T05:16:07.898Z,19.50
2023-03-20T05:22:37.842Z,18.25
2023-03-20T05:26:00.679Z,19.10
2023-03-20T05:29:26.202Z,19.08
2023-03-20T05:32:49.725Z,19.65
2023-03-20T05:36:04.336Z,19.70
2023-03-20T05:39:25.582Z,19.55
2023-03-20T05:42:27.745Z,19.30
2023-03-20T05:45:49.937Z,19.90
2023-03-20T05:49:04.265Z,18.70
2023-03-20T05:52:48.263Z,21.15
2023-03-20T05:55:59.863Z,20.42
2023-03-20T05:59:20.558Z,19.67
2023-03-20T06:02:44.896Z,19.95
2023-03-20T06:06:08.767Z,19.23
2023-03-20T06:09:11.182Z,21.48
2023-03-20T06:12:13.812Z,20.45
2023-03-20T06:15:16.712Z,20.92
2023-03-20T06:18:25.835Z,19.00
2023-03-20T06:21:30.227Z,19.40
2023-03-20T06:24:33.311Z,19.75
2023-03-20T06:27:36.164Z,22.35
2023-03-20T06:30:38.986Z,20.77
2023-03-20T06:33:43.259Z,19.80
2023-03-20T06:36:45.689Z,20.05
2023-03-20T06:39:54.439Z,20.17
2023-03-20T06:42:56.766Z,21.63
2023-03-20T06:46:06.215Z,20.65
2023-03-20T06:49:09.007Z,20.55
2023-03-20T06:52:17.041Z,22.88
2023-03-20T06:58:23.769Z,21.08
2023-03-20T07:01:27.563Z,21.38
2023-03-20T07:04:29.983Z,22.30
2023-03-20T07:07:35.669Z,22.60
2023-03-20T07:10:38.503Z,23.67
2023-03-20T07:13:41.796Z,24.08
2023-03-20T07:16:56.714Z,22.48
2023-03-20T07:19:59.001Z,22.92
2023-03-20T07:23:01.203Z,23.40
2023-03-20T07:26:06.914Z,23.65
2023-03-20T07:29:10.078Z,23.58
2023-03-20T07:32:13.183Z,23.58
2023-03-20T07:35:22.783Z,19.95
2023-03-20T07:38:24.974Z,21.67
2023-03-20T07:41:39.917Z,23.05
2023-03-20T07:44:44.736Z,23.48
2023-03-20T07:47:48.791Z,24.42
2023-03-20T07:50:51.088Z,23.20
2023-03-20T07:53:53.527Z,20.13
2023-03-20T07:56:56.016Z,21.08
2023-03-20T07:59:58.955Z,19.98
2023-03-20T08:03:01.377Z,20.63
2023-03-20T08:06:06.498Z,21.75
2023-03-20T08:09:08.956Z,23.63
2023-03-20T08:12:11.193Z,22.60
2023-03-20T08:15:13.710Z,23.48
2023-03-20T08:18:16.077Z,21.17
2023-03-20T08:21:18.301Z,21.73
2023-03-20T08:24:20.585Z,24.52
2023-03-20T08:27:22.850Z,24.98
2023-03-20T08:30:27.346Z,24.48
2023-03-20T08:33:29.586Z,23.35
2023-03-20T08:36:31.899Z,21.40
2023-03-20T08:39:34.457Z,23.08
2023-03-20T08:42:36.662Z,23.75
2023-03-20T08:45:39.086Z,22.15
2023-03-20T08:48:41.532Z,20.80
2023-03-20T08:51:43.795Z,21.20
2023-03-20T08:54:46.015Z,22.05
2023-03-20T08:57:48.399Z,20.20
2023-03-20T09:00:51.105Z,18.00
2023-03-20T09:03:53.315Z,18.42
2023-03-20T09:06:55.516Z,16.98
2023-03-20T09:09:57.627Z,17.83
2023-03-20T09:12:59.724Z,18.23
2023-03-20T09:16:02.482Z,19.65
2023-03-20T09:19:05.478Z,19.33
2023-03-20T09:22:07.674Z,16.65
2023-03-20T09:25:10.260Z,16.27
2023-03-20T09:28:12.555Z,16.98
2023-03-20T09:31:15.126Z,17.92
2023-03-20T09:34:17.362Z,16.48
2023-03-20T09:37:19.599Z,15.32
2023-03-20T09:40:31.423Z,20.65
2023-03-20T09:44:11.937Z,17.10
2023-03-20T09:47:21.296Z,18.58
2023-03-20T09:50:35.676Z,17.10
2023-03-20T09:53:47.581Z,16.10
2023-03-20T09:56:51.808Z,18.73
2023-03-20T10:00:04.300Z,21.17
2023-03-20T10:03:29.803Z,19.38
2023-03-20T10:06:33.781Z,18.67
2023-03-20T10:09:36.468Z,21.08
2023-03-20T10:12:50.736Z,22.00
2023-03-20T10:16:16.101Z,20.17
2023-03-20T10:19:23.256Z,20.85
2023-03-20T10:22:48.466Z,20.40
2023-03-20T10:25:56.543Z,20.60
2023-03-20T10:29:02.205Z,20.25
2023-03-20T10:32:18.238Z,19.23
2023-03-20T10:35:43.643Z,20.35
2023-03-20T10:38:51.876Z,20.33
2023-03-20T10:41:59.068Z,20.30
2023-03-20T10:45:23.284Z,20.00
2023-03-20T10:48:36.949Z,18.80
2023-03-20T10:51:46.522Z,17.77
2023-03-20T10:54:56.582Z,19.95
2023-03-20T10:58:06.210Z,20.10
2023-03-20T11:01:08.903Z,21.90
2023-03-20T11:04:11.249Z,19.73
2023-03-20T11:07:27.892Z,18.77
2023-03-20T11:10:32.886Z,20.00
2023-03-20T11:13:44.749Z,19.98
2023-03-20T11:16:55.184Z,20.33
2023-03-20T11:20:04.521Z,20.08
2023-03-20T11:23:26.518Z,19.23
2023-03-20T16:40:20.003Z,23.75
2023-03-20T16:43:32.267Z,23.58
2023-03-20T16:46:34.645Z,25.05
2023-03-20T16:49:50.940Z,20.52
2023-03-20T16:52:58.750Z,22.27
2023-03-20T16:56:04.969Z,21.15
2023-03-20T16:59:16.684Z,24.02
2023-03-20T17:02:24.972Z,21.00
2023-03-20T17:05:43.377Z,25.73
2023-03-20T17:09:00.617Z,23.92
2023-03-20T17:12:15.178Z,23.20
2023-03-20T17:15:20.921Z,22.15
2023-03-20T17:18:23.144Z,18.30
2023-03-20T17:21:25.841Z,16.85
2023-03-20T17:24:28.089Z,15.40
2023-03-20T17:27:30.526Z,17.65
2023-03-20T17:30:32.666Z,20.52
2023-03-20T17:33:36.735Z,19.13
2023-03-20T17:36:39.005Z,21.10
2023-03-20T17:39:41.478Z,21.83
2023-03-20T17:42:43.758Z,19.58
2023-03-20T17:45:47.731Z,21.25
2023-03-20T17:48:51.434Z,19.10
2023-03-20T17:51:54.514Z,19.17
2023-03-20T17:54:56.817Z,19.65
2023-03-20T17:57:58.975Z,17.92
2023-03-20T18:01:01.511Z,19.35
2023-03-20T18:04:03.794Z,19.55
2023-03-20T18:07:07.230Z,19.60
2023-03-20T18:10:35.236Z,18.42
2023-03-20T18:13:37.889Z,18.65
2023-03-20T18:16:40.108Z,18.77
2023-03-20T18:19:43.189Z,18.75
2023-03-20T18:22:45.359Z,19.63
2023-03-20T18:25:47.650Z,19.65
2023-03-20T18:28:51.486Z,19.83
2023-03-20T18:31:53.953Z,18.08
2023-03-20T18:34:56.155Z,16.98
2023-03-20T18:37:58.900Z,17.08
2023-03-20T18:41:01.466Z,17.80
2023-03-20T18:44:03.698Z,19.88
2023-03-20T18:47:06.247Z,18.00
2023-03-20T18:50:28.235Z,17.45
2023-03-20T18:53:30.803Z,17.02
2023-03-20T18:56:36.826Z,17.77
2023-03-20T18:59:39.055Z,18.10
2023-03-20T19:02:41.210Z,17.20
2023-03-20T19:05:43.582Z,15.90
2023-03-20T19:08:46.671Z,17.02
2023-03-20T19:11:49.388Z,16.63
2023-03-20T19:14:51.615Z,19.40
2023-03-20T19:17:54.978Z,17.08
2023-03-20T19:20:58.274Z,16.30
2023-03-20T19:24:03.989Z,15.95
2023-03-20T19:27:06.343Z,17.33
2023-03-20T19:30:26.707Z,16.45
2023-03-20T19:33:28.785Z,16.77
2023-03-20T19:36:33.465Z,16.33
2023-03-20T19:39:35.943Z,17.23
2023-03-20T19:42:58.899Z,16.20
2023-03-20T19:46:01.135Z,16.88
2023-03-20T19:49:04.327Z,16.50
2023-03-20T19:52:11.866Z,17.17
2023-03-20T19:55:14.000Z,18.00
2023-03-20T19:58:17.632Z,17.95
2023-03-20T20:01:23.289Z,17.55
2023-03-20T20:04:25.933Z,16.77
2023-03-20T20:08:06.267Z,16.58
2023-03-20T20:10:52.253Z,16.90
2023-03-20T20:14:06.637Z,17.50
2023-03-20T20:17:10.129Z,18.23
2023-03-20T20:20:14.201Z,17.73
2023-03-20T20:23:21.850Z,18.50
2023-03-20T20:26:24.359Z,17.95
2023-03-20T20:29:26.861Z,18.75
2023-03-20T20:32:30.744Z,18.42
2023-03-20T20:35:51.482Z,19.30
2023-03-20T20:38:56.628Z,18.58
2023-03-20T20:41:58.828Z,18.45
2023-03-20T20:45:00.926Z,19.55
2023-03-20T20:48:05.831Z,19.75
2023-03-20T20:51:08.080Z,20.60
2023-03-20T20:54:10.226Z,20.48
2023-03-20T20:57:12.546Z,22.25
2023-03-20T21:00:16.086Z,22.65
2023-03-20T21:03:18.655Z,21.25
2023-03-20T21:06:21.957Z,19.33
2023-03-20T21:09:26.025Z,20.85
2023-03-20T21:12:38.221Z,21.10
2023-03-20T21:15:45.785Z,21.38
2023-03-20T21:18:48.289Z,22.60
2023-03-20T21:21:50.732Z,21.35
2023-03-20T21:25:00.774Z,21.90
2023-03-20T21:28:10.366Z,23.45
2023-03-20T21:31:25.882Z,21.63
2023-03-20T21:34:30.135Z,19.80
2023-03-20T21:38:36.213Z,24.50
2023-03-20T21:40:55.004Z,22.17
2023-03-20T21:43:57.283Z,23.20
2023-03-20T21:54:45.908Z,22.70
2023-03-20T22:01:14.498Z,22.38
2023-03-20T22:05:02.152Z,23.63
2023-03-20T22:11:27.557Z,23.55
2023-03-20T22:14:51.455Z,22.88
2023-03-20T22:31:34.729Z,26.08
2023-03-20T22:34:53.700Z,26.20
2023-03-20T22:47:42.956Z,25.38
2023-03-20T22:50:46.867Z,23.77
2023-03-20T22:53:51.404Z,24.40
2023-03-20T22:56:53.522Z,23.30
2023-03-20T22:59:55.669Z,24.38
2023-03-20T23:03:13.750Z,25.75
2023-03-20T23:06:22.160Z,25.30
2023-03-20T23:09:24.226Z,24.35
2023-03-20T23:12:26.544Z,24.80
2023-03-20T23:15:28.877Z,25.45
2023-03-20T23:18:31.222Z,24.77
2023-03-20T23:21:33.385Z,24.38
2023-03-20T23:24:35.513Z,25.70
2023-03-20T23:27:37.704Z,24.42
2023-03-20T23:30:56.705Z,23.88
2023-03-20T23:34:02.000Z,24.55
2023-03-20T23:37:04.399Z,24.83
2023-03-20T23:40:07.212Z,26.55
2023-03-20T23:43:09.406Z,25.25
2023-03-20T23:46:11.733Z,26.98
2023-03-20T23:49:13.814Z,26.48
2023-03-20T23:52:16.024Z,27.92
2023-03-20T23:55:21.695Z,27.50
2023-03-20T23:58:25.637Z,26.10
